Time;durP1;ratioP1;P1;durP2;ratioP2;P2;SDS_P1;SDS_P2;PMS_P1;PMS_P2;Temp;Humidity;BMP_temperature;BMP_pressure;BME280_temperature;BME280_humidity;BME280_pressure;Samples;Min_cycle;Max_cycle;Signal;HPM_P1;HPM_P2
2022/07/16 00:01:23;;;;;;;1.70;1.60;;;;;;;15.97;64.59;102158.38;5119052;28;21410;-74
2022/07/16 00:03:56;;;;;;;4.88;1.85;;;;;;;15.97;65.03;102159.09;5115294;28;20055;-74
2022/07/16 00:06:24;;;;;;;1.92;1.83;;;;;;;15.99;64.94;102158.66;5114735;28;20040;-73
2022/07/16 00:08:51;;;;;;;3.58;2.17;;;;;;;16.00;65.13;102154.75;5119332;28;20071;-75
2022/07/16 00:11:19;;;;;;;2.28;1.75;;;;;;;16.00;65.13;102160.88;5118861;28;20505;-76
2022/07/16 00:13:45;;;;;;;2.90;2.22;;;;;;;16.02;64.96;102157.75;5099741;28;20049;-73
2022/07/16 00:16:12;;;;;;;2.55;1.95;;;;;;;16.01;65.47;102154.31;5118977;28;20544;-74
2022/07/16 00:21:25;;;;;;;2.00;1.90;;;;;;;15.98;64.90;102144.50;5115013;28;20076;-73
2022/07/16 00:23:53;;;;;;;5.78;2.05;;;;;;;15.94;65.19;102151.19;5118008;28;20390;-75
2022/07/16 00:26:19;;;;;;;3.13;2.20;;;;;;;15.91;65.19;102155.50;5118714;28;20136;-73
2022/07/16 00:28:46;;;;;;;2.20;2.00;;;;;;;15.89;65.57;102151.75;5118620;28;20536;-75
2022/07/16 00:31:13;;;;;;;3.83;2.10;;;;;;;15.86;65.86;102155.31;5118405;28;20336;-74
2022/07/16 00:33:40;;;;;;;2.70;2.00;;;;;;;15.85;65.52;102149.22;5117857;28;20545;-74
2022/07/16 00:36:07;;;;;;;3.58;2.25;;;;;;;15.84;65.70;102147.72;5118392;28;20079;-74
2022/07/16 00:38:34;;;;;;;5.82;2.20;;;;;;;15.84;66.10;102150.41;5118407;28;20048;-76
2022/07/16 00:41:01;;;;;;;3.17;2.88;;;;;;;15.85;65.89;102151.91;5118646;28;20055;-75
2022/07/16 00:43:27;;;;;;;5.13;2.60;;;;;;;15.87;65.63;102154.13;5118334;28;20528;-74
2022/07/16 00:45:54;;;;;;;2.80;2.15;;;;;;;15.88;65.99;102158.31;5117377;28;20048;-74
2022/07/16 00:48:20;;;;;;;3.20;1.80;;;;;;;15.86;65.71;102164.13;5118392;28;20056;-74
2022/07/16 00:50:47;;;;;;;3.60;2.10;;;;;;;15.85;66.21;102161.88;5099925;28;20493;-74
2022/07/16 00:53:14;;;;;;;3.47;2.10;;;;;;;15.85;66.25;102157.25;5118231;28;20121;-74
2022/07/16 00:55:41;;;;;;;2.72;2.22;;;;;;;15.86;66.20;102150.72;5117876;28;20458;-75
2022/07/16 00:58:07;;;;;;;2.17;2.03;;;;;;;15.89;65.74;102152.50;5118276;28;20040;-74
2022/07/16 01:00:34;;;;;;;3.53;2.25;;;;;;;15.90;65.95;102147.88;5099451;28;20494;-74
2022/07/16 01:03:04;;;;;;;4.65;2.25;;;;;;;15.87;66.19;102146.84;5117886;28;20155;-75
2022/07/16 01:05:30;;;;;;;2.20;2.00;;;;;;;15.87;66.93;102143.41;5117594;28;20048;-75
2022/07/16 01:07:57;;;;;;;4.22;2.63;;;;;;;15.87;66.78;102144.16;5117978;28;20048;-75
2022/07/16 01:10:24;;;;;;;2.50;1.90;;;;;;;15.88;67.16;102139.53;5117773;28;20131;-74
2022/07/16 01:12:59;;;;;;;4.32;2.17;;;;;;;15.88;66.38;102142.97;5118157;28;20072;-75
2022/07/16 01:15:25;;;;;;;2.35;2.10;;;;;;;15.84;67.72;102144.28;5117315;28;20051;-74
2022/07/16 01:17:53;;;;;;;3.47;2.22;;;;;;;15.85;67.67;102129.66;5099841;28;20048;-75
2022/07/16 01:20:20;;;;;;;4.90;2.05;;;;;;;15.81;68.23;102137.84;5091482;28;20040;-74
2022/07/16 01:22:47;;;;;;;3.13;2.00;;;;;;;15.80;68.03;102140.97;5117688;28;20047;-75
2022/07/16 01:25:13;;;;;;;2.33;1.92;;;;;;;15.81;68.43;102137.84;5113601;28;20076;-73
2022/07/16 01:27:39;;;;;;;3.92;2.50;;;;;;;15.79;68.48;102129.50;5099011;28;20056;-74
2022/07/16 01:30:08;;;;;;;3.00;2.72;;;;;;;15.80;68.73;102133.66;5117465;28;20061;-75
2022/07/16 01:32:35;;;;;;;2.50;2.30;;;;;;;15.80;69.09;102136.34;5117479;28;20048;-76
2022/07/16 01:35:03;;;;;;;3.25;2.33;;;;;;;15.81;68.29;102139.78;5117094;28;20498;-74
2022/07/16 01:37:30;;;;;;;3.75;2.50;;;;;;;15.80;69.07;102144.41;5117763;28;20044;-75
2022/07/16 01:39:57;;;;;;;2.35;2.15;;;;;;;15.80;69.07;102138.28;5117525;28;20044;-74
2022/07/16 01:42:23;;;;;;;4.28;2.50;;;;;;;15.81;68.86;102137.09;5116944;28;20048;-76
2022/07/16 01:44:50;;;;;;;3.20;2.38;;;;;;;15.82;69.20;102139.34;5117144;28;20398;-74
2022/07/16 01:47:16;;;;;;;4.70;2.30;;;;;;;15.82;69.38;102138.59;5115979;28;20047;-74
2022/07/16 01:49:43;;;;;;;2.58;2.38;;;;;;;15.79;69.60;102132.19;5116752;28;20079;-74
2022/07/16 01:52:17;;;;;;;5.15;2.45;;;;;;;15.81;69.39;102137.84;5117380;28;20052;-74
2022/07/16 01:54:47;;;;;;;2.47;2.28;;;;;;;15.80;70.00;102133.66;5116847;28;20048;-74
2022/07/16 01:57:15;;;;;;;4.43;2.47;;;;;;;15.80;69.96;102146.34;5116437;28;20048;-74
2022/07/16 01:59:43;;;;;;;6.97;2.55;;;;;;;15.77;70.19;102136.50;5116915;28;20052;-74
2022/07/16 02:02:10;;;;;;;4.32;2.42;;;;;;;15.76;69.96;102138.44;5116500;28;20056;-75
2022/07/16 02:04:38;;;;;;;3.17;2.38;;;;;;;15.74;70.40;102140.81;5116708;28;20478;-74
2022/07/16 02:07:05;;;;;;;2.30;2.10;;;;;;;15.71;70.68;102140.94;5117357;28;20143;-74
2022/07/16 02:09:31;;;;;;;2.45;2.20;;;;;;;15.67;70.50;102141.81;5098563;28;20052;-75
2022/07/16 02:11:58;;;;;;;2.53;2.33;;;;;;;15.64;70.90;102141.94;5103117;28;20181;-75
2022/07/16 02:14:25;;;;;;;2.80;2.45;;;;;;;15.63;70.91;102145.81;5116765;28;20105;-75
2022/07/16 02:16:51;;;;;;;2.40;2.20;;;;;;;15.59;71.09;102140.59;5097995;28;20500;-75
2022/07/16 02:19:18;;;;;;;2.70;2.40;;;;;;;15.58;71.55;102139.09;5117092;28;20102;-74
2022/07/16 02:21:44;;;;;;;2.35;2.17;;;;;;;15.55;71.67;102133.84;5116969;28;20064;-74
2022/07/16 02:24:11;;;;;;;3.42;2.50;;;;;;;15.53;72.14;102138.91;5116478;28;20109;-77
2022/07/16 02:26:38;;;;;;;4.43;2.80;;;;;;;15.50;72.41;102140.53;5117137;28;20050;-75
2022/07/16 02:29:04;;;;;;;5.45;2.50;;;;;;;15.50;72.53;102145.88;5116832;28;20599;-75
2022/07/16 02:31:39;;;;;;;2.55;2.35;;;;;;;15.47;72.40;102152.13;5113126;27;20860;-76
2022/07/16 02:34:06;;;;;;;4.57;2.55;;;;;;;15.46;72.74;102147.94;5112487;28;20121;-75
2022/07/16 02:36:32;;;;;;;2.80;2.55;;;;;;;15.41;74.12;102145.09;5116878;28;20044;-74
2022/07/16 02:38:59;;;;;;;2.40;2.30;;;;;;;15.40;74.00;102138.22;5116847;28;20544;-74
2022/07/16 02:41:25;;;;;;;2.60;2.40;;;;;;;15.37;73.98;102144.47;5098807;28;20059;-74
2022/07/16 02:43:52;;;;;;;2.85;2.50;;;;;;;15.32;74.99;102148.47;5116329;28;20055;-74
2022/07/16 02:46:18;;;;;;;3.55;2.50;;;;;;;15.30;75.26;102145.47;5116309;28;20048;-75
2022/07/16 02:48:45;;;;;;;4.53;2.95;;;;;;;15.29;75.51;102155.44;5116608;28;20147;-74
2022/07/16 02:51:12;;;;;;;3.00;2.40;;;;;;;15.27;76.26;102151.69;5116759;28;20059;-74
2022/07/16 02:53:39;;;;;;;2.83;2.60;;;;;;;15.26;76.18;102153.63;5116367;28;20471;-74
2022/07/16 02:56:05;;;;;;;6.05;2.63;;;;;;;15.21;76.90;102150.75;5116510;28;20213;-74
2022/07/16 02:58:32;;;;;;;2.97;2.75;;;;;;;15.21;76.47;102154.19;5115740;27;20048;-75
2022/07/16 03:00:59;;;;;;;4.55;2.72;;;;;;;15.18;76.97;102157.78;5118842;28;20636;-74
2022/07/16 03:03:25;;;;;;;4.60;2.95;;;;;;;15.15;77.98;102155.22;5119879;28;20482;-74
2022/07/16 03:05:52;;;;;;;5.30;3.20;;;;;;;15.13;77.36;102168.31;5119682;28;20124;-74
2022/07/16 03:08:18;;;;;;;4.68;3.15;;;;;;;15.12;77.97;102170.25;5119893;28;20101;-74
2022/07/16 03:10:45;;;;;;;3.28;2.60;;;;;;;15.12;78.34;102166.81;5115652;28;20051;-74
2022/07/16 03:13:12;;;;;;;4.90;3.13;;;;;;;15.11;79.30;102165.31;5119401;28;20200;-74
2022/07/16 03:15:38;;;;;;;3.65;2.70;;;;;;;15.12;78.86;102170.25;5119337;28;20052;-74
2022/07/16 03:18:05;;;;;;;3.20;2.90;;;;;;;15.12;79.41;102172.19;5119909;28;20048;-75
2022/07/16 03:20:31;;;;;;;6.43;3.13;;;;;;;15.12;79.92;102172.94;5119775;28;20059;-74
2022/07/16 03:22:58;;;;;;;5.68;3.42;;;;;;;15.12;80.50;102177.53;5119700;28;20063;-75
2022/07/16 03:25:25;;;;;;;5.00;2.90;;;;;;;15.10;80.51;102177.97;5119604;28;20453;-74
2022/07/16 03:27:51;;;;;;;6.35;3.30;;;;;;;15.11;80.67;102176.03;5100910;28;20098;-76
2022/07/16 03:30:18;;;;;;;5.93;3.33;;;;;;;15.10;81.15;102179.91;5119703;28;20090;-75
2022/07/16 03:32:44;;;;;;;8.02;3.13;;;;;;;15.07;81.59;102183.47;5119555;28;20488;-76
2022/07/16 03:35:12;;;;;;;5.55;2.70;;;;;;;15.05;82.29;102194.63;5118815;28;20533;-74
2022/07/16 03:40:25;;;;;;;4.22;2.75;;;;;;;15.04;82.46;102197.75;5122973;27;20051;-74
2022/07/16 03:42:52;;;;;;;6.32;3.10;;;;;;;15.02;83.19;102209.66;5119153;28;20047;-75
2022/07/16 03:45:18;;;;;;;2.85;2.65;;;;;;;15.01;84.03;102208.16;5118532;28;20509;-74
2022/07/16 03:47:45;;;;;;;5.25;2.80;;;;;;;15.02;84.52;102206.97;5118606;28;20059;-75
2022/07/16 03:50:12;;;;;;;4.05;3.13;;;;;;;15.05;84.44;102212.66;5118895;28;20056;-75
2022/07/16 03:52:43;;;;;;;3.10;2.80;;;;;;;15.09;84.63;102215.97;5119252;28;20486;-74
2022/07/16 03:55:10;;;;;;;5.43;3.20;;;;;;;15.11;85.24;102214.34;5118810;28;20114;-75
2022/07/16 03:57:37;;;;;;;7.75;2.95;;;;;;;15.14;85.68;102213.47;5118963;28;20055;-75
2022/07/16 04:00:05;;;;;;;7.50;3.13;;;;;;;15.18;85.87;102218.72;5099910;28;20052;-74
2022/07/16 04:02:32;;;;;;;2.85;2.42;;;;;;;15.20;85.80;102216.31;5119181;28;20163;-75
2022/07/16 04:04:58;;;;;;;3.17;2.45;;;;;;;15.22;86.38;102222.00;5118822;28;20044;-75
2022/07/16 04:07:25;;;;;;;4.13;2.50;;;;;;;15.24;86.49;102231.13;5118513;28;20087;-75
2022/07/16 04:09:52;;;;;;;3.45;2.45;;;;;;;15.26;86.44;102226.06;5118838;28;20058;-76
2022/07/16 04:12:22;;;;;;;4.22;2.50;;;;;;;15.30;86.96;102234.00;5118213;28;20044;-76
2022/07/16 04:14:52;;;;;;;7.57;2.50;;;;;;;15.33;nan;102227.75;5118736;28;20047;-75
2022/07/16 04:17:19;;;;;;;4.15;2.22;;;;;;;15.35;87.13;102239.56;5118994;28;20046;-75
2022/07/16 04:19:46;;;;;;;2.78;2.20;;;;;;;15.40;87.54;102235.56;5118953;28;20055;-75
2022/07/16 04:22:13;;;;;;;4.47;1.95;;;;;;;15.44;87.09;102241.56;5100460;28;20048;-74
2022/07/16 04:24:39;;;;;;;5.50;2.08;;;;;;;15.49;86.86;102242.94;5118419;28;20044;-74
2022/07/16 04:27:06;;;;;;;2.17;2.00;;;;;;;15.54;85.83;102245.06;5100455;28;20052;-75
2022/07/16 04:29:32;;;;;;;4.45;1.63;;;;;;;15.59;85.90;102241.84;5118681;28;20497;-76
2022/07/16 04:31:59;;;;;;;3.60;1.80;;;;;;;15.64;84.64;102243.94;5118976;28;20055;-74
2022/07/16 04:34:25;;;;;;;5.63;1.63;;;;;;;15.68;84.20;102244.56;5117854;28;20048;-75
2022/07/16 04:36:52;;;;;;;7.15;1.48;;;;;;;15.71;83.37;102251.75;5118027;28;20504;-75
2022/07/16 04:39:24;;;;;;;2.50;1.40;;;;;;;15.74;82.58;102256.25;5118371;28;20063;-75
2022/07/16 04:41:51;;;;;;;2.67;1.30;;;;;;;15.76;81.71;102253.88;5100642;28;20055;-74
2022/07/16 04:44:17;;;;;;;3.90;1.58;;;;;;;15.80;81.36;102256.44;5118184;28;20044;-75
2022/07/16 04:46:49;;;;;;;;;;;;;;;15.93;80.64;102262.47;5118909;28;20052;-75
2022/07/16 04:49:16;;;;;;;2.78;1.30;;;;;;;16.33;79.12;102267.88;5118058;28;20378;-74
2022/07/16 04:51:42;;;;;;;2.45;1.30;;;;;;;16.48;77.59;102270.75;5118282;28;20117;-73
2022/07/16 04:54:08;;;;;;;1.05;1.00;;;;;;;16.94;75.17;102275.06;5101585;28;20055;-74
2022/07/16 04:56:35;;;;;;;1.45;1.25;;;;;;;17.36;73.22;102271.06;5118225;28;20055;-74
2022/07/16 04:59:01;;;;;;;2.90;1.30;;;;;;;17.57;72.44;102276.28;5117947;28;20048;-74
2022/07/16 05:01:28;;;;;;;2.28;1.35;;;;;;;17.91;70.53;102280.56;5117601;28;20504;-74
2022/07/16 05:03:54;;;;;;;1.25;1.15;;;;;;;18.29;69.18;102282.69;5117007;28;20059;-74
2022/07/16 05:06:22;;;;;;;2.28;1.10;;;;;;;19.91;64.12;102285.13;5114334;28;20052;-74
2022/07/16 05:08:49;;;;;;;1.50;1.13;;;;;;;21.76;57.02;102291.56;5118192;28;20391;-75
2022/07/16 05:11:15;;;;;;;2.50;1.02;;;;;;;23.12;52.40;102303.47;5117813;28;20044;-75
2022/07/16 05:13:42;;;;;;;4.47;1.52;;;;;;;23.96;49.77;102294.69;5117341;28;20051;-75
2022/07/16 05:16:08;;;;;;;1.23;1.13;;;;;;;24.70;47.83;102300.22;5117863;28;20048;-74
2022/07/16 05:18:35;;;;;;;1.08;1.08;;;;;;;25.11;46.54;102294.09;5117705;28;20048;-75
2022/07/16 05:21:02;;;;;;;1.73;1.00;;;;;;;25.72;45.30;102301.09;5118136;28;20052;-75
2022/07/16 05:23:28;;;;;;;2.50;1.52;;;;;;;26.37;43.20;102305.72;5098805;28;20106;-76
2022/07/16 05:25:55;;;;;;;3.92;1.52;;;;;;;26.65;42.52;102308.84;5117516;27;20501;-75
2022/07/16 05:28:21;;;;;;;3.50;1.35;;;;;;;26.89;41.50;102308.03;5117932;28;20134;-76
2022/07/16 05:30:48;;;;;;;4.22;1.20;;;;;;;26.68;40.13;102318.00;5117500;28;20047;-74
2022/07/16 05:33:14;;;;;;;2.88;1.60;;;;;;;25.97;42.10;102313.53;5117721;28;20126;-75
2022/07/16 05:35:41;;;;;;;4.30;1.40;;;;;;;25.75;41.62;102314.47;5116901;28;20051;-75
2022/07/16 05:38:08;;;;;;;1.65;1.30;;;;;;;25.57;41.87;102312.34;5117448;28;20063;-75
2022/07/16 05:40:34;;;;;;;1.25;1.10;;;;;;;25.82;41.84;102308.44;5117811;28;20422;-76
2022/07/16 05:43:01;;;;;;;7.45;1.25;;;;;;;26.02;40.92;102314.72;5117838;28;20054;-75
2022/07/16 05:45:28;;;;;;;2.30;1.35;;;;;;;25.54;41.70;102316.84;5116267;28;20059;-74
2022/07/16 05:47:54;;;;;;;4.70;1.45;;;;;;;25.13;42.75;102321.56;5117225;28;20056;-75
2022/07/16 05:50:21;;;;;;;2.83;1.33;;;;;;;25.29;41.48;102326.16;5117245;28;20135;-75
2022/07/16 05:52:48;;;;;;;3.03;1.48;;;;;;;24.77;42.33;102331.63;5117422;28;20062;-75
2022/07/16 05:55:14;;;;;;;4.28;1.20;;;;;;;24.40;43.32;102327.25;5117147;28;20056;-74
2022/07/16 05:57:41;;;;;;;6.55;1.20;;;;;;;24.06;43.92;102331.97;5117336;28;20486;-75
2022/07/16 06:00:10;;;;;;;1.42;1.10;;;;;;;23.60;45.03;102332.47;5112450;28;20501;-74
2022/07/16 06:02:41;;;;;;;1.83;1.40;;;;;;;22.83;46.02;102339.16;5110495;28;20497;-75
2022/07/16 06:05:08;;;;;;;3.55;1.23;;;;;;;22.66;46.09;102339.06;5095671;28;20074;-74
2022/07/16 06:07:35;;;;;;;1.92;1.25;;;;;;;22.55;45.56;102345.16;5117228;28;20044;-73
2022/07/16 06:10:02;;;;;;;1.48;1.20;;;;;;;22.49;45.89;102341.66;5098412;28;20075;-75
2022/07/16 06:12:29;;;;;;;2.72;1.40;;;;;;;22.33;46.81;102347.75;5116511;28;20043;-74
2022/07/16 06:14:55;;;;;;;10.02;1.63;;;;;;;21.94;48.22;102352.84;5116827;28;20051;-74
2022/07/16 06:17:22;;;;;;;3.03;1.67;;;;;;;21.75;48.68;102346.25;5117199;28;20056;-75
2022/07/16 06:19:48;;;;;;;2.05;1.08;;;;;;;21.52;49.99;102348.03;5117124;28;20062;-75
2022/07/16 06:22:15;;;;;;;6.40;1.35;;;;;;;21.56;50.01;102354.72;5117142;28;20040;-74
2022/07/16 06:24:41;;;;;;;3.80;1.10;;;;;;;21.64;49.34;102361.19;5098284;28;20044;-74
2022/07/16 06:27:07;;;;;;;5.72;1.40;;;;;;;21.54;49.19;102357.16;5116576;28;20397;-75
2022/07/16 06:29:34;;;;;;;8.50;1.10;;;;;;;21.51;49.64;102363.53;5116873;28;20482;-74
2022/07/16 06:32:00;;;;;;;3.33;0.93;;;;;;;21.53;49.78;102358.38;5116884;28;20508;-75
2022/07/16 06:34:27;;;;;;;2.20;1.15;;;;;;;21.52;49.91;102373.16;5118224;27;20554;-75
2022/07/16 06:36:54;;;;;;;2.70;1.10;;;;;;;21.38;50.67;102373.97;5120499;28;20482;-75
2022/07/16 06:39:20;;;;;;;2.92;1.00;;;;;;;21.48;49.94;102369.91;5120595;28;20518;-75
2022/07/16 06:41:47;;;;;;;7.50;1.20;;;;;;;21.54;50.09;102373.41;5120058;28;20044;-74
2022/07/16 06:44:13;;;;;;;4.00;1.30;;;;;;;21.60;49.52;102370.75;5101364;28;20052;-74
2022/07/16 06:46:40;;;;;;;1.50;0.93;;;;;;;21.52;48.43;102375.13;5120184;28;20052;-75
2022/07/16 06:49:06;;;;;;;3.13;1.27;;;;;;;21.44;48.31;102379.44;5085089;27;20044;-75
2022/07/16 06:51:33;;;;;;;2.78;1.38;;;;;;;21.53;48.93;102379.31;5120077;28;20098;-74
2022/07/16 06:53:59;;;;;;;1.33;1.10;;;;;;;21.67;48.35;102385.84;5101542;28;20390;-75
2022/07/16 06:56:26;;;;;;;3.03;1.30;;;;;;;21.60;48.43;102393.16;5119914;28;20177;-74
2022/07/16 06:58:52;;;;;;;1.60;1.00;;;;;;;21.64;47.77;102390.25;5119905;28;20048;-76
2022/07/16 07:01:19;;;;;;;2.25;1.20;;;;;;;21.48;48.94;102393.53;5119722;28;20422;-73
2022/07/16 07:03:45;;;;;;;4.80;1.25;;;;;;;21.69;47.93;102394.22;5119621;28;20056;-76
2022/07/16 07:06:12;;;;;;;3.97;1.05;;;;;;;21.58;46.91;102395.63;5120314;28;20052;-76
2022/07/16 07:08:38;;;;;;;5.80;0.98;;;;;;;21.37;47.95;102396.13;5120079;28;20051;-77
2022/07/16 07:11:11;;;;;;;4.10;1.20;;;;;;;21.37;47.07;102402.28;5119152;28;20117;-75
2022/07/16 07:13:38;;;;;;;1.77;1.00;;;;;;;21.24;46.41;102404.56;5119427;28;20047;-77
2022/07/16 07:16:05;;;;;;;1.63;0.95;;;;;;;21.19;47.23;102419.50;5120142;28;20044;-76
2022/07/16 07:18:33;;;;;;;5.03;1.10;;;;;;;21.10;47.23;102416.19;5119716;28;20048;-76
2022/07/16 07:21:00;;;;;;;2.63;1.15;;;;;;;21.08;47.78;102415.94;5119607;28;20044;-76
2022/07/16 07:23:27;;;;;;;3.67;1.20;;;;;;;21.23;48.25;102416.63;5119301;28;20078;-75
2022/07/16 07:25:53;;;;;;;6.18;1.38;;;;;;;21.15;47.83;102420.94;5118660;28;20068;-73
2022/07/16 07:28:19;;;;;;;5.32;1.20;;;;;;;21.01;48.40;102421.72;5119519;28;20055;-78
2022/07/16 07:30:46;;;;;;;2.42;1.10;;;;;;;20.92;48.47;102428.75;5119504;28;20512;-77
2022/07/16 07:33:14;;;;;;;3.53;1.30;;;;;;;21.00;48.30;102431.06;5100986;28;20332;-77
2022/07/16 07:35:41;;;;;;;2.38;0.98;;;;;;;21.02;48.70;102420.50;5118968;28;20051;-77
2022/07/16 07:38:07;;;;;;;2.45;1.10;;;;;;;21.04;48.23;102429.66;5115023;28;20059;-78
2022/07/16 07:40:34;;;;;;;6.22;1.15;;;;;;;21.19;48.58;102432.31;5119357;28;20496;-78
2022/07/16 07:43:00;;;;;;;10.18;1.50;;;;;;;21.39;47.01;102431.59;5119444;28;20044;-77
2022/07/16 07:45:27;;;;;;;5.28;1.38;;;;;;;21.23;46.91;102438.28;5117541;27;20040;-78
2022/07/16 07:47:54;;;;;;;3.58;1.13;;;;;;;21.06;46.80;102431.91;5119253;28;20056;-78
2022/07/16 07:50:21;;;;;;;9.43;1.00;;;;;;;20.77;47.21;102436.19;5101095;28;20162;-80
2022/07/16 07:52:48;;;;;;;5.13;0.98;;;;;;;20.92;47.58;102439.59;5114111;28;20048;-75
2022/07/16 07:55:14;;;;;;;4.70;1.27;;;;;;;21.10;47.08;102435.91;5095280;28;20048;-76
2022/07/16 07:57:42;;;;;;;2.58;1.20;;;;;;;21.41;46.82;102429.16;5119263;28;20343;-76
2022/07/16 08:00:09;;;;;;;13.07;1.30;;;;;;;21.46;45.41;102445.50;5118623;28;20048;-75
2022/07/16 08:02:43;;;;;;;3.85;1.23;;;;;;;21.69;45.60;102449.19;5118633;28;20054;-74
2022/07/16 08:05:10;;;;;;;;;;;;;;;21.74;47.27;102445.78;5118649;28;20393;-71
2022/07/16 08:07:37;;;;;;;3.90;1.00;;;;;;;22.09;45.03;102440.25;5118721;28;19930;-74
2022/07/16 08:10:04;;;;;;;3.03;1.02;;;;;;;22.15;44.42;102451.91;5118808;28;20044;-74
2022/07/16 08:12:31;;;;;;;7.18;1.20;;;;;;;21.90;44.28;102449.91;5118770;28;20040;-73
2022/07/16 08:14:58;;;;;;;4.32;1.23;;;;;;;22.01;44.02;102454.69;5120965;27;20055;-74
2022/07/16 08:17:24;;;;;;;4.40;1.00;;;;;;;22.22;43.62;102450.72;5118755;28;20059;-74
2022/07/16 08:19:51;;;;;;;8.52;0.90;;;;;;;22.44;42.87;102439.31;5118199;28;20482;-75
2022/07/16 08:22:17;;;;;;;3.83;1.17;;;;;;;22.37;42.09;102464.19;5118481;28;20052;-73
2022/07/16 08:27:30;;;;;;;3.88;1.20;;;;;;;22.49;42.53;102461.06;5115416;28;20048;-73
2022/07/16 08:29:57;;;;;;;4.78;2.25;;;;;;;22.68;41.15;102463.41;5118614;28;20390;-74
2022/07/16 08:32:24;;;;;;;2.72;1.20;;;;;;;22.74;41.92;102469.63;5114013;28;20458;-73
2022/07/16 08:34:50;;;;;;;3.88;0.88;;;;;;;22.43;41.17;102481.22;5103166;28;20052;-73
2022/07/16 08:37:31;;;;;;;3.20;0.98;;;;;;;22.49;42.36;102480.06;5100250;28;20047;-74
2022/07/16 08:39:59;;;;;;;2.90;1.05;;;;;;;22.45;42.51;102481.50;5114694;28;20055;-73
2022/07/16 08:42:26;;;;;;;4.30;1.80;;;;;;;22.30;42.20;102492.47;5114033;28;20052;-73
2022/07/16 08:44:52;;;;;;;2.53;1.00;;;;;;;21.99;42.63;102481.56;5117241;28;20052;-74
2022/07/16 08:47:19;;;;;;;1.40;0.90;;;;;;;21.60;43.73;102489.97;5117902;28;20389;-73
2022/07/16 08:49:46;;;;;;;6.47;1.52;;;;;;;22.01;43.16;102488.00;5116198;28;20048;-73
2022/07/16 08:52:13;;;;;;;4.57;0.98;;;;;;;22.31;42.04;102501.38;5114984;28;20044;-74
2022/07/16 08:54:40;;;;;;;3.05;0.88;;;;;;;22.44;40.94;102497.03;5117775;28;20055;-74
2022/07/16 08:57:08;;;;;;;9.07;1.20;;;;;;;22.69;41.29;102505.63;5114641;28;20456;-73
2022/07/16 08:59:35;;;;;;;2.30;0.90;;;;;;;22.87;39.93;102500.59;5113732;28;20054;-73
2022/07/16 09:02:03;;;;;;;2.00;1.00;;;;;;;23.11;40.91;102496.81;5117473;28;20067;-74
2022/07/16 09:04:34;;;;;;;1.05;0.90;;;;;;;23.29;40.13;102505.28;5117639;28;20078;-73
2022/07/16 09:07:01;;;;;;;3.70;1.40;;;;;;;23.31;39.82;102504.81;5099457;28;20052;-73
2022/07/16 09:09:27;;;;;;;4.70;1.15;;;;;;;23.33;39.42;102526.06;5118145;28;20474;-74
2022/07/16 09:11:54;;;;;;;7.68;1.00;;;;;;;23.12;39.55;102520.03;5117349;28;20052;-75
2022/07/16 09:14:21;;;;;;;2.47;1.30;;;;;;;23.04;38.62;102535.28;5117244;28;20067;-74
2022/07/16 09:16:50;;;;;;;2.85;0.90;;;;;;;22.76;40.52;102524.94;5117879;28;20075;-74
2022/07/16 09:19:20;;;;;;;2.22;0.90;;;;;;;22.83;39.19;102527.22;5117803;28;20048;-72
2022/07/16 09:22:05;;;;;;;1.38;0.82;;;;;;;22.99;40.21;102530.53;5117697;28;20482;-72
2022/07/16 09:24:42;;;;;;;2.85;0.90;;;;;;;23.08;39.39;102517.53;5116635;28;20052;-71
2022/07/16 09:27:12;;;;;;;4.00;1.15;;;;;;;23.18;39.38;102523.53;5117700;28;20055;-74
2022/07/16 09:29:46;;;;;;;1.98;0.95;;;;;;;23.26;39.99;102521.81;5117480;28;20052;-71
2022/07/16 09:32:27;;;;;;;1.73;0.90;;;;;;;23.45;39.99;102533.78;5113236;28;20462;-72
2022/07/16 09:35:11;;;;;;;2.28;0.80;;;;;;;23.26;39.52;102538.13;5116780;28;20075;-73
2022/07/16 09:37:56;;;;;;;4.50;1.48;;;;;;;23.23;38.11;102530.94;5117505;28;20489;-73
2022/07/16 09:40:29;;;;;;;1.70;0.90;;;;;;;23.17;38.21;102533.66;5113962;28;20048;-72
2022/07/16 09:42:55;;;;;;;1.92;0.80;;;;;;;23.31;38.27;102540.13;5117119;28;20070;-72
2022/07/16 09:45:22;;;;;;;6.53;1.00;;;;;;;23.52;37.75;102530.63;5116573;28;20481;-76
2022/07/16 09:47:49;;;;;;;1.67;0.95;;;;;;;23.36;36.87;102544.09;5113375;28;20048;-74
2022/07/16 09:50:15;;;;;;;2.78;0.90;;;;;;;23.26;36.67;102548.97;5117114;28;20040;-75
2022/07/16 09:52:42;;;;;;;2.13;1.00;;;;;;;23.38;36.55;102566.09;5116545;28;20044;-73
2022/07/16 09:55:09;;;;;;;2.28;0.95;;;;;;;23.35;37.15;102551.50;5116382;28;20051;-73
2022/07/16 09:57:36;;;;;;;4.10;1.10;;;;;;;23.48;37.62;102562.72;5116681;28;20040;-75
2022/07/16 10:00:08;;;;;;;1.30;0.80;;;;;;;23.56;36.64;102560.31;5116818;28;20077;-74
2022/07/16 10:02:38;;;;;;;1.77;0.80;;;;;;;23.49;36.56;102558.03;5116419;28;20532;-73
2022/07/16 10:05:05;;;;;;;5.63;1.00;;;;;;;23.63;35.33;102570.69;5116226;28;20131;-74
2022/07/16 10:07:33;;;;;;;3.17;1.10;;;;;;;23.49;35.40;102558.75;5116946;28;20406;-74
2022/07/16 10:10:00;;;;;;;5.28;1.42;;;;;;;23.55;36.64;102556.09;5116369;28;20075;-73
2022/07/16 10:12:29;;;;;;;1.55;0.90;;;;;;;23.55;35.93;102553.38;5112919;28;20059;-74
2022/07/16 10:14:58;;;;;;;3.97;1.10;;;;;;;23.54;36.00;102557.34;5101848;28;20125;-73
2022/07/16 10:17:34;;;;;;;4.18;0.93;;;;;;;23.78;36.74;102568.56;5116865;28;20050;-74
2022/07/16 10:20:08;;;;;;;3.08;0.75;;;;;;;23.99;35.98;102552.81;5117032;28;20518;-75
2022/07/16 10:22:37;;;;;;;3.80;0.88;;;;;;;23.84;36.47;102563.88;5098672;28;20044;-73
2022/07/16 10:25:14;;;;;;;1.70;0.90;;;;;;;23.36;36.82;102563.13;5115985;28;20055;-74
2022/07/16 10:27:43;;;;;;;1.02;0.90;;;;;;;23.56;37.00;102573.91;5116981;28;20059;-73
2022/07/16 10:30:15;;;;;;;1.70;0.93;;;;;;;23.68;35.98;102571.97;5116572;28;20052;-73
2022/07/16 10:33:07;;;;;;;3.15;1.52;;;;;;;23.90;37.03;102561.19;5116673;28;20137;-74
2022/07/16 10:35:45;;;;;;;4.63;0.90;;;;;;;23.89;35.52;102579.47;5112540;28;20135;-75
2022/07/16 10:38:27;;;;;;;1.58;0.85;;;;;;;23.88;35.38;102571.81;5113450;28;20052;-74
2022/07/16 10:41:05;;;;;;;;;;;;;;;24.00;37.12;102576.03;5116900;28;20532;-74
2022/07/16 10:43:34;;;;;;;3.45;1.05;;;;;;;24.04;36.10;102579.25;5116326;28;19931;-74
2022/07/16 10:46:03;;;;;;;2.65;1.20;;;;;;;24.12;36.18;102579.53;5115258;28;20113;-73
2022/07/16 10:48:50;;;;;;;1.30;1.20;;;;;;;24.56;36.56;102590.53;5116139;28;20482;-73
2022/07/16 10:51:24;;;;;;;1.27;0.80;;;;;;;24.49;34.86;102595.72;5115987;28;20059;-72
2022/07/16 10:54:02;;;;;;;7.47;1.13;;;;;;;24.19;36.29;102581.78;5115883;28;20052;-73
2022/07/16 10:56:39;;;;;;;2.58;0.80;;;;;;;24.08;36.33;102590.66;5115800;28;20048;-73
2022/07/16 10:59:08;;;;;;;1.95;0.88;;;;;;;23.93;36.41;102595.56;5116077;28;20044;-74
2022/07/16 11:01:38;;;;;;;2.38;1.02;;;;;;;23.66;37.08;102596.91;5115703;28;20159;-73
2022/07/16 11:04:06;;;;;;;7.63;1.08;;;;;;;23.72;35.63;102594.22;5115801;28;20078;-74
2022/07/16 11:06:33;;;;;;;2.80;0.90;;;;;;;24.10;35.43;102596.34;5116296;28;20087;-74
2022/07/16 11:09:01;;;;;;;2.97;1.00;;;;;;;24.16;35.96;102594.41;5115763;28;20111;-72
2022/07/16 11:11:35;;;;;;;1.42;1.00;;;;;;;24.61;35.69;102586.34;5116110;28;20134;-72
2022/07/16 11:14:03;;;;;;;6.45;1.20;;;;;;;24.74;35.61;102602.94;5115696;28;20060;-73
2022/07/16 11:16:30;;;;;;;5.85;1.00;;;;;;;24.57;34.12;102602.91;5116152;28;20051;-73
2022/07/16 11:19:00;;;;;;;4.72;1.02;;;;;;;23.99;35.69;102599.06;5116000;28;20044;-73
2022/07/16 11:21:27;;;;;;;2.60;1.00;;;;;;;24.46;35.24;102599.44;5117431;27;20478;-73
2022/07/16 11:23:58;;;;;;;1.27;0.80;;;;;;;24.82;35.85;102598.47;5118874;28;20055;-76
2022/07/16 11:26:25;;;;;;;;;;;;;;;25.14;36.18;102609.16;5119894;28;20063;-73
2022/07/16 11:28:59;;;;;;;2.35;0.82;;;;;;;25.15;34.13;102589.59;5119511;28;19924;-75
2022/07/16 11:31:29;;;;;;;4.13;1.17;;;;;;;25.18;35.09;102596.03;5115950;28;20051;-74
2022/07/16 11:34:04;;;;;;;1.48;0.90;;;;;;;24.91;34.40;102594.75;5118677;28;20048;-74
2022/07/16 11:36:36;;;;;;;5.15;1.35;;;;;;;25.03;34.88;102593.53;5116146;28;20044;-74
2022/07/16 11:39:07;;;;;;;3.95;1.23;;;;;;;25.23;33.82;102597.97;5119600;28;20052;-74